Campiña-Pas de vigilance météorologique particuliére.   -   Il n'y a aucun avertissement

Nearby METAR Reports

 

LEZL - Sevilla, Spain
Distance from station: ENE 8km
Mise à jour: 29/01/2020 13:00
Few Clouds
Few Clouds
 Wind from NE
Vent: NE 11 km/h
Température: 15°C
Point de rosée: 12°C
Humidité: 82%
Baromètre: 1026 hPa
Clouds: Few Clouds
Visibility: 10 km
Cloud details: Few Clouds 457 m
2020/01/29 12:00 LEZL 291200Z 04006KT 9999 FEW015 15/12 Q1026 NOSIG
LEMO - Morón, Spain
Distance from station: SE 43km
Mise à jour: 29/01/2020 13:00
clair
clair
 Wind from NNE
Vent: NNE 15 km/h
Température: 16°C
Point de rosée: 11°C
Humidité: 72%
Baromètre: 1026 hPa
Résumé: clair
Visibility: greater than 10 km
2020/01/29 12:00 LEMO 291200Z 02008KT 350V060 CAVOK 16/11 Q1026 NOSIG
LEJR - Jeréz, Spain
Distance from station: S 71km
Mise à jour: 29/01/2020 13:00
Patches of fog, Few clouds
Patches of fog, Few clouds
 Wind from N
Vent: N 11 km/h
Température: 15°C
Point de rosée: 12°C
Humidité: 82%
Baromètre: 1026 hPa
Résumé: Patches of Fog
Clouds: Few Clouds
Visibility: 7 km
Cloud details: Few Clouds 1067 m
2020/01/29 12:00 LEJR 291200Z 35006KT 300V010 7000 BCFG FEW035 15/12 Q1026
 
LERT - Rota, Spain
Distance from station: SSO 89km
Mise à jour: 29/01/2020 13:00
clair
clair
 Wind from N
Vent: N 6 km/h
Température: 16°C
Point de rosée: 12°C
Humidité: 77%
Baromètre: 1026 hPa
Résumé: clair
Visibility: greater than 10 km
2020/01/29 12:00 LERT 291200Z 01003KT 330V110 CAVOK 16/12 Q1026 NOSIG
LEMG - Málaga, Spain
Distance from station: ESE 157km
Mise à jour: 29/01/2020 13:00
clair
clair
 Wind from ESE
Vent: ESE 7 km/h
Température: 18°C
Point de rosée: 13°C
Humidité: 73%
Baromètre: 1025 hPa
Résumé: clair
Visibility: greater than 10 km
2020/01/29 12:00 LEMG 291200Z 12004KT 080V160 CAVOK 18/13 Q1025 NOSIG
LEBA - Córdoba, Spain
Distance from station: ENE 115km
Mise à jour: 29/01/2020 13:00
partiellement nuageux
partiellement nuageux
 Wind from E
Vent: E 7 km/h
Température: 14°C
Point de rosée: 11°C
Humidité: 82%
Baromètre: 1026 hPa
Clouds: partiellement nuageux
Visibility: 8 km
2020/01/29 12:00 LEBA 291200Z 08004KT 050V110 8000 NSC 14/11 Q1026
 
LEGR - Granada, Spain
Distance from station: E 198km
Mise à jour: 29/01/2020 13:00
clair
clair
 Wind from calm
Vent: calme
Température: 9°C
Point de rosée: 9°C
Humidité: 100%
Baromètre: 1026 hPa
Résumé: clair
Visibility: greater than 10 km
2020/01/29 12:00 LEGR 291200Z 00000KT CAVOK 09/09 Q1026
LEAM - Almería, Spain
Distance from station: E 326km
Mise à jour: 29/01/2020 13:00
clair
clair
 Wind from varies
Vent: varies 2 km/h
Température: 14°C
Point de rosée: 12°C
Humidité: 88%
Baromètre: 1024 hPa
Résumé: clair
Visibility: greater than 10 km
2020/01/29 12:00 LEAM 291200Z VRB01KT CAVOK 14/12 Q1024
LEMD - Madrid/Barajas, Spain
Distance from station: NNE 402km
Mise à jour: 29/01/2020 13:00
nuageux
nuageux
 Wind from SSO
Vent: SSO 9 km/h
Température: 13°C
Point de rosée: 9°C
Humidité: 77%
Baromètre: 1024 hPa
Clouds: nuageux
Visibility: 10 km
Cloud details: nuageux 488 m
2020/01/29 12:00 LEMD 291200Z 21005KT 170V240 9999 BKN016 13/09 Q1024 NOSIG
 
LEVD - Valladolid, Spain
Distance from station: N 492km
Mise à jour: 29/01/2020 13:00
pluie légère, partiellement nuageux
pluie légère, partiellement nuageux
 Wind from SO
Vent: SO 22 km/h
Température: 10°C
Facteur Vent: 7°C
Point de rosée: 9°C
Humidité: 94%
Baromètre: 1023 hPa
Résumé: pluie légère
Clouds: partiellement nuageux
Visibility: 10 km
Cloud details: partiellement nuageux 213 m
partiellement nuageux 640 m
2020/01/29 12:00 LEVD 291200Z 22012KT 9999 -RA SCT007 SCT021 10/09 Q1023
LEBL - Barcelona, Spain
Distance from station: NE 816km
Mise à jour: 29/01/2020 13:00
nuageux
nuageux
 Wind from varies
Vent: varies 4 km/h
Température: 14°C
Point de rosée: 9°C
Humidité: 72%
Baromètre: 1022 hPa
Clouds: nuageux
Visibility: 10 km
Cloud details: nuageux 1311 m
2020/01/29 12:00 LEBL 291200Z VRB02KT 9999 BKN043 14/09 Q1022 NOSIG
LEVC - Valencia, Spain
Distance from station: ENE 535km
Mise à jour: 29/01/2020 13:00
Few Clouds
Few Clouds
 Wind from O
Vent: O 20 km/h
Température: 20°C
Point de rosée: 11°C
Humidité: 56%
Baromètre: 1022 hPa
Clouds: Few Clouds
Visibility: 10 km
Cloud details: Few Clouds 1219 m
2020/01/29 12:00 LEVC 291200Z 28011KT 250V310 9999 FEW040 20/11 Q1022 NOSIG